Conesus, New York
Current Conditions -  °F | °C
As of 12:54 PM on Sunday 25 Jan 2015 (Local Time) from KDSV Reporting Station
Overcast Overcast  
Wind Chill:   Ceiling: 2500
Heat Index: 20°   Visibility: 10mi
Dew Point: 11°   Wind: 9mph
Humidity: 68%   Direction: 340°NNW
Pressure: 29.9"   Gusts: NA
Location:  42.72°N, 77.68°W
Report Text: KDSV 251754Z AUTO 34008KT 10SM OVC025 M07/M12 A2990 RMK AO2 SNB1658E08 SLP143 P0000 60000 T10671117 11033 21072 51010
Loading
Personal Weather Stations






























Interactive Weather Map New forecast layout! Learn more

10-Day Weather Forecast

Advertisements
Track Severe Weather on mobile